createdAt,value
2022-12-19T00:02:05.538Z,2.47
2022-12-19T00:04:33.874Z,2.56
2022-12-19T00:07:03.993Z,2.73
2022-12-19T00:09:33.878Z,2.69
2022-12-19T00:12:05.827Z,2.62
2022-12-19T00:14:42.288Z,2.68
2022-12-19T00:17:09.504Z,2.82
2022-12-19T00:19:41.181Z,2.81
2022-12-19T00:22:11.655Z,2.92
2022-12-19T00:24:49.919Z,2.81
2022-12-19T00:27:23.662Z,2.82
2022-12-19T00:30:04.274Z,2.75
2022-12-19T00:32:38.093Z,2.64
2022-12-19T00:35:10.243Z,2.74
2022-12-19T00:37:49.350Z,2.84
2022-12-19T00:40:23.490Z,2.89
2022-12-19T00:42:56.815Z,2.61
2022-12-19T00:45:26.462Z,2.70
2022-12-19T00:48:08.706Z,2.81
2022-12-19T00:50:41.594Z,2.70
2022-12-19T00:53:14.342Z,2.82
2022-12-19T00:55:44.851Z,3.09
2022-12-19T00:58:19.212Z,2.63
2022-12-19T01:00:51.750Z,2.74
2022-12-19T01:03:22.525Z,2.57
2022-12-19T01:05:56.026Z,2.66
2022-12-19T01:08:26.778Z,2.84
2022-12-19T01:10:57.932Z,2.76
2022-12-19T01:13:32.768Z,2.75
2022-12-19T01:16:13.353Z,2.85
2022-12-19T01:18:47.003Z,2.66
2022-12-19T01:21:17.550Z,2.44
2022-12-19T01:23:51.710Z,2.48
2022-12-19T01:26:22.262Z,2.81
2022-12-19T01:28:58.017Z,2.73
2022-12-19T01:31:36.110Z,2.87
2022-12-19T01:34:10.059Z,2.61
2022-12-19T01:36:40.464Z,2.71
2022-12-19T01:39:09.193Z,2.87
2022-12-19T01:41:39.666Z,2.76
2022-12-19T01:44:09.542Z,2.72
2022-12-19T01:46:52.550Z,2.77
2022-12-19T01:49:31.615Z,2.69
2022-12-19T01:52:07.666Z,2.58
2022-12-19T01:54:38.662Z,2.60
2022-12-19T01:57:11.068Z,2.65
2022-12-19T01:59:46.110Z,2.55
2022-12-19T02:02:20.157Z,2.54
2022-12-19T02:04:51.163Z,2.36
2022-12-19T02:07:22.222Z,2.54
2022-12-19T02:09:56.928Z,2.52
2022-12-19T02:12:26.413Z,2.43
2022-12-19T02:15:00.522Z,2.48
2022-12-19T02:17:39.477Z,2.63
2022-12-19T02:20:34.416Z,2.41
2022-12-19T02:23:30.830Z,2.52
2022-12-19T02:26:05.168Z,2.60
2022-12-19T02:28:44.100Z,2.55
2022-12-19T02:31:42.637Z,2.56
2022-12-19T02:34:21.120Z,2.51
2022-12-19T02:37:00.715Z,2.48
2022-12-19T02:39:42.801Z,2.31
2022-12-19T02:42:24.848Z,2.47
2022-12-19T02:45:01.235Z,2.40
2022-12-19T02:47:35.757Z,2.50
2022-12-19T02:50:06.719Z,2.47
2022-12-19T02:52:37.632Z,2.34
2022-12-19T02:55:09.648Z,2.41
2022-12-19T02:58:00.235Z,2.37
2022-12-19T03:00:38.033Z,2.36
2022-12-19T03:03:12.172Z,2.19
2022-12-19T03:06:14.201Z,2.31
2022-12-19T03:09:00.388Z,2.28
2022-12-19T03:11:35.686Z,2.35
2022-12-19T03:14:17.197Z,2.25
2022-12-19T03:16:50.582Z,2.46
2022-12-19T03:19:18.149Z,2.30
2022-12-19T03:21:51.734Z,2.24
2022-12-19T03:24:19.708Z,2.25
2022-12-19T03:26:58.805Z,2.31
2022-12-19T03:29:52.409Z,2.24
2022-12-19T03:32:21.998Z,2.28
2022-12-19T03:35:07.243Z,2.09
2022-12-19T03:37:39.578Z,2.43
2022-12-19T03:40:13.416Z,2.13
2022-12-19T03:42:42.231Z,2.09
2022-12-19T03:45:11.501Z,2.18
2022-12-19T03:47:47.433Z,2.25
2022-12-19T03:50:19.008Z,2.16
2022-12-19T03:52:52.079Z,2.21
2022-12-19T03:55:47.565Z,2.16
2022-12-19T03:58:26.510Z,2.15
2022-12-19T04:00:58.146Z,2.22
2022-12-19T04:03:30.858Z,2.32
2022-12-19T04:06:05.482Z,2.25
2022-12-19T04:08:37.504Z,2.24
2022-12-19T04:11:13.268Z,2.23
2022-12-19T04:13:51.692Z,2.13
2022-12-19T04:16:41.316Z,2.27
2022-12-19T04:19:21.830Z,2.24
2022-12-19T04:22:00.254Z,2.22
2022-12-19T04:24:37.674Z,2.22
2022-12-19T04:27:08.377Z,2.22
2022-12-19T04:29:57.112Z,2.17
2022-12-19T04:32:30.405Z,1.98
2022-12-19T04:35:00.459Z,2.02
2022-12-19T04:37:31.428Z,2.22
2022-12-19T04:40:02.704Z,6.10
2022-12-19T04:42:38.518Z,6.98
2022-12-19T04:45:09.128Z,5.88
2022-12-19T04:47:36.917Z,7.04
2022-12-19T04:50:05.289Z,7.11
2022-12-19T04:52:36.409Z,6.89
2022-12-19T04:55:14.960Z,4.87
2022-12-19T04:58:08.000Z,5.05
2022-12-19T05:00:38.728Z,3.76
2022-12-19T05:03:11.982Z,3.94
2022-12-19T05:05:40.444Z,4.89
2022-12-19T05:08:10.903Z,4.29
2022-12-19T05:10:44.701Z,3.69
2022-12-19T05:13:18.613Z,3.74
2022-12-19T05:16:03.586Z,2.74
2022-12-19T05:18:31.927Z,2.57
2022-12-19T05:21:03.172Z,2.15
2022-12-19T05:23:33.310Z,2.27
2022-12-19T05:26:02.075Z,2.14
2022-12-19T05:28:32.162Z,2.27
2022-12-19T05:31:16.821Z,2.24
2022-12-19T05:33:50.205Z,2.24
2022-12-19T05:36:25.450Z,2.19
2022-12-19T05:38:56.922Z,2.22
2022-12-19T05:41:30.045Z,2.25
2022-12-19T05:43:57.104Z,2.28
2022-12-19T05:46:27.063Z,2.29
2022-12-19T05:48:58.215Z,2.36
2022-12-19T05:51:26.396Z,2.17
2022-12-19T05:53:56.983Z,2.27
2022-12-19T05:56:28.642Z,2.15
2022-12-19T05:58:57.886Z,2.23
2022-12-19T06:01:28.493Z,2.16
2022-12-19T06:03:58.895Z,2.20
2022-12-19T06:06:30.835Z,2.13
2022-12-19T06:09:03.822Z,2.19
2022-12-19T06:11:34.620Z,2.32
2022-12-19T06:14:01.765Z,2.12
2022-12-19T06:16:29.260Z,2.00
2022-12-19T06:18:56.633Z,1.89
2022-12-19T06:21:24.721Z,1.91
2022-12-19T06:23:55.040Z,1.83
2022-12-19T06:26:22.687Z,1.84
2022-12-19T06:28:51.758Z,1.85
2022-12-19T06:31:21.673Z,2.00
2022-12-19T06:33:52.524Z,1.90
2022-12-19T06:36:21.048Z,1.86
2022-12-19T06:38:49.290Z,1.97
2022-12-19T06:41:17.887Z,2.10
2022-12-19T06:43:48.028Z,2.07
2022-12-19T06:46:19.382Z,1.90
2022-12-19T06:48:46.713Z,1.99
2022-12-19T06:51:16.821Z,1.85
2022-12-19T06:53:47.091Z,1.71
2022-12-19T06:56:15.994Z,1.60
2022-12-19T06:58:44.044Z,1.59
2022-12-19T07:01:19.651Z,1.63
2022-12-19T07:03:48.799Z,1.69
2022-12-19T07:06:22.823Z,1.61
2022-12-19T07:08:53.686Z,1.96
2022-12-19T07:11:24.681Z,1.85
2022-12-19T07:13:52.016Z,1.69
2022-12-19T07:16:24.857Z,1.61
2022-12-19T07:18:58.994Z,1.90
2022-12-19T07:21:29.620Z,1.93
2022-12-19T07:24:00.788Z,1.79
2022-12-19T07:26:34.227Z,1.68
2022-12-19T07:29:06.006Z,1.79
2022-12-19T07:31:42.434Z,1.87
2022-12-19T07:34:14.077Z,1.67
2022-12-19T07:36:45.469Z,1.67
2022-12-19T07:39:19.556Z,2.12
2022-12-19T07:41:53.791Z,1.76
2022-12-19T07:44:24.830Z,1.79
2022-12-19T07:46:58.195Z,1.65
2022-12-19T07:49:28.749Z,1.84
2022-12-19T07:51:59.221Z,2.00
2022-12-19T07:54:28.608Z,1.91
2022-12-19T07:56:59.276Z,1.72
2022-12-19T07:59:34.398Z,2.06
2022-12-19T08:02:06.529Z,2.14
2022-12-19T08:04:35.473Z,1.64
2022-12-19T08:07:03.227Z,1.59
2022-12-19T08:09:34.082Z,2.00
2022-12-19T08:12:04.262Z,1.67
2022-12-19T08:14:35.391Z,1.55
2022-12-19T08:17:21.847Z,1.79
2022-12-19T08:19:52.121Z,1.98
2022-12-19T08:22:19.438Z,1.98
2022-12-19T08:24:46.891Z,1.91
2022-12-19T08:27:16.098Z,2.15
2022-12-19T08:29:45.862Z,2.65
2022-12-19T08:32:20.753Z,2.09
2022-12-19T08:34:54.341Z,1.83
2022-12-19T08:37:30.889Z,1.36
2022-12-19T08:40:00.770Z,1.68
2022-12-19T08:42:34.374Z,1.68
2022-12-19T08:45:08.499Z,1.30
2022-12-19T08:47:42.119Z,1.41
2022-12-19T08:50:18.792Z,1.90
2022-12-19T08:52:49.507Z,1.63
2022-12-19T08:55:23.505Z,1.74
2022-12-19T08:57:57.415Z,1.95
2022-12-19T09:00:29.308Z,3.07
2022-12-19T09:03:06.864Z,3.25
2022-12-19T09:06:05.461Z,2.40
2022-12-19T09:08:34.221Z,2.82
2022-12-19T09:11:13.596Z,2.93
2022-12-19T09:13:42.295Z,2.27
2022-12-19T09:16:27.585Z,2.09
2022-12-19T09:18:56.526Z,2.83
2022-12-19T09:21:28.231Z,2.56
2022-12-19T09:24:03.501Z,2.43
2022-12-19T09:26:41.938Z,2.63
2022-12-19T09:29:20.799Z,2.66
2022-12-19T09:31:57.183Z,2.19
2022-12-19T09:34:33.230Z,2.34
2022-12-19T09:37:16.688Z,2.69
2022-12-19T09:39:49.238Z,2.53
2022-12-19T09:42:22.268Z,2.46
2022-12-19T09:44:59.785Z,2.47
2022-12-19T09:47:33.008Z,2.55
2022-12-19T09:50:22.596Z,2.90
2022-12-19T09:53:02.174Z,2.83
2022-12-19T09:55:42.460Z,2.60
2022-12-19T09:58:41.121Z,2.57
2022-12-19T10:01:20.861Z,2.93
2022-12-19T10:04:13.595Z,2.88
2022-12-19T10:07:22.149Z,2.66
2022-12-19T10:12:46.409Z,3.14
2022-12-19T10:13:13.129Z,2.93
2022-12-19T10:15:44.699Z,2.57
2022-12-19T10:18:17.558Z,2.66
2022-12-19T10:21:37.006Z,3.19
2022-12-19T10:24:38.245Z,3.01
2022-12-19T10:27:44.306Z,2.83
2022-12-19T10:30:32.218Z,3.14
2022-12-19T10:33:04.064Z,3.12
2022-12-19T10:35:47.163Z,2.87
2022-12-19T10:38:38.777Z,2.18
2022-12-19T10:41:20.891Z,2.96
2022-12-19T10:43:55.095Z,2.81
2022-12-19T10:46:55.781Z,2.92
2022-12-19T10:49:29.292Z,3.08
2022-12-19T10:52:06.897Z,3.13
2022-12-19T10:54:37.634Z,2.99
2022-12-19T10:57:29.253Z,2.81
2022-12-19T11:00:17.729Z,3.12
2022-12-19T11:02:48.968Z,3.46
2022-12-19T11:05:41.720Z,3.31
2022-12-19T11:08:09.573Z,3.06
2022-12-19T11:13:01.911Z,3.32
2022-12-19T11:17:06.996Z,3.16
2022-12-19T11:21:37.490Z,3.44
2022-12-19T11:29:16.226Z,3.16
2022-12-19T11:29:46.426Z,3.11
2022-12-19T11:30:39.082Z,3.03
2022-12-19T11:30:49.027Z,3.31
2022-12-19T11:32:31.510Z,3.19
2022-12-19T11:34:32.804Z,3.25
2022-12-19T11:37:39.895Z,3.02
2022-12-19T11:40:33.229Z,3.25
2022-12-19T11:46:22.067Z,3.97
2022-12-19T11:48:49.747Z,3.63
2022-12-19T11:51:28.631Z,4.03
2022-12-19T11:54:23.513Z,3.69
2022-12-19T11:56:51.089Z,3.60
2022-12-19T11:59:35.140Z,3.76
2022-12-19T12:02:27.332Z,4.52
2022-12-19T12:05:44.895Z,4.59
2022-12-19T12:10:48.616Z,4.61
2022-12-19T12:19:49.599Z,5.12
2022-12-19T12:23:19.553Z,4.81
2022-12-19T12:31:11.702Z,4.05
2022-12-19T12:31:13.967Z,3.56
2022-12-19T12:31:56.042Z,2.86
2022-12-19T12:32:06.318Z,2.94
2022-12-19T12:37:11.005Z,2.82
2022-12-19T12:41:07.451Z,3.03
2022-12-19T12:44:09.851Z,2.67
2022-12-19T12:46:44.047Z,2.86
2022-12-19T12:49:31.958Z,2.69
2022-12-19T12:52:10.991Z,2.69
2022-12-19T12:54:45.898Z,2.45
2022-12-19T12:57:34.394Z,2.17
2022-12-19T13:00:34.166Z,2.26
2022-12-19T13:03:18.888Z,2.06
2022-12-19T13:05:54.035Z,2.15
2022-12-19T13:08:38.064Z,1.89
2022-12-19T13:11:35.851Z,2.18
2022-12-19T13:14:26.633Z,2.21
2022-12-19T13:16:56.959Z,1.89
2022-12-19T13:19:33.082Z,1.88
2022-12-19T13:22:17.150Z,2.11
2022-12-19T13:24:52.144Z,2.09
2022-12-19T13:27:23.115Z,2.12
2022-12-19T13:30:05.535Z,1.79
2022-12-19T13:32:42.132Z,2.02
2022-12-19T13:36:15.446Z,1.84
2022-12-19T13:39:59.970Z,1.98
2022-12-19T13:41:31.329Z,2.15
2022-12-19T13:44:05.100Z,2.10
2022-12-19T13:46:40.860Z,2.00
2022-12-19T13:49:34.432Z,1.75
2022-12-19T13:52:06.733Z,1.90
2022-12-19T13:54:50.211Z,1.83
2022-12-19T13:57:41.166Z,1.63
2022-12-19T14:00:21.288Z,1.69
2022-12-19T14:02:55.558Z,1.70
2022-12-19T14:06:17.015Z,1.51
2022-12-19T14:08:31.573Z,1.44
2022-12-19T14:11:38.277Z,1.67
2022-12-19T14:14:08.239Z,1.72
2022-12-19T14:16:47.792Z,1.44
2022-12-19T14:19:26.852Z,1.32
2022-12-19T14:22:24.774Z,1.58
2022-12-19T14:25:33.396Z,1.36
2022-12-19T14:28:22.085Z,1.31
2022-12-19T14:31:07.954Z,1.48
2022-12-19T14:36:52.450Z,1.05
2022-12-19T14:39:34.491Z,1.17
2022-12-19T14:42:13.967Z,1.34
2022-12-19T14:51:51.454Z,1.07
2022-12-19T14:54:11.643Z,1.02
2022-12-19T14:54:16.867Z,1.00
2022-12-19T14:54:55.167Z,0.96
2022-12-19T14:56:36.237Z,0.97
2022-12-19T14:59:49.543Z,0.91
2022-12-19T15:02:32.837Z,0.98
2022-12-19T15:05:10.398Z,0.71
2022-12-19T15:07:46.530Z,0.74
2022-12-19T15:11:03.601Z,0.71
2022-12-19T15:14:51.989Z,0.69
2022-12-19T15:16:30.720Z,0.59
2022-12-19T15:19:05.609Z,0.52
2022-12-19T15:21:39.500Z,0.56
2022-12-19T15:24:08.638Z,0.63
2022-12-19T15:26:47.118Z,0.51
2022-12-19T15:29:21.644Z,0.25
2022-12-19T15:31:51.623Z,0.53
2022-12-19T15:34:48.447Z,0.36
2022-12-19T15:37:18.801Z,0.47
2022-12-19T15:39:49.362Z,0.45
2022-12-19T15:42:26.337Z,0.49
2022-12-19T15:44:56.845Z,0.90
2022-12-19T15:47:36.153Z,0.75
2022-12-19T15:50:17.180Z,0.45
2022-12-19T15:52:57.832Z,0.61
2022-12-19T15:55:28.267Z,0.62
2022-12-19T15:58:09.044Z,0.35
2022-12-19T16:00:37.458Z,0.44
2022-12-19T16:05:55.233Z,0.38
2022-12-19T16:08:24.331Z,0.24
2022-12-19T16:11:01.432Z,0.26
2022-12-19T16:13:45.355Z,0.31
2022-12-19T16:16:16.216Z,0.21
2022-12-19T16:18:46.262Z,0.01
2022-12-19T16:21:26.155Z,-0.06
2022-12-19T16:24:01.214Z,-0.08
2022-12-19T16:26:35.781Z,-0.25
2022-12-19T16:29:19.108Z,0.03
2022-12-19T16:31:53.382Z,-0.10
2022-12-19T16:34:30.259Z,0.14
2022-12-19T16:37:03.153Z,-0.14
2022-12-19T16:39:33.753Z,-0.30
2022-12-19T16:42:06.370Z,-0.13
2022-12-19T16:44:37.769Z,-0.31
2022-12-19T16:47:15.396Z,-0.26
2022-12-19T16:49:43.935Z,-0.37
2022-12-19T16:52:16.680Z,-0.36
2022-12-19T16:54:49.523Z,0.54
2022-12-19T16:57:22.395Z,-0.12
2022-12-19T16:59:51.026Z,-0.35
2022-12-19T17:03:00.965Z,-0.43
2022-12-19T17:05:32.328Z,-0.48
2022-12-19T17:08:02.979Z,-0.45
2022-12-19T17:10:37.669Z,-0.45
2022-12-19T17:13:04.957Z,-0.51
2022-12-19T17:15:40.499Z,-0.39
2022-12-19T17:18:24.554Z,-0.41
2022-12-19T17:20:55.314Z,-0.49
2022-12-19T17:23:30.168Z,-0.37
2022-12-19T17:25:58.011Z,-0.65
2022-12-19T17:28:29.231Z,-0.49
2022-12-19T17:31:07.222Z,-0.88
2022-12-19T17:33:39.617Z,-0.67
2022-12-19T17:36:13.500Z,-0.90
2022-12-19T17:38:47.169Z,-0.87
2022-12-19T17:41:24.486Z,-0.81
2022-12-19T17:43:56.253Z,-0.55
2022-12-19T17:46:26.878Z,-0.85
2022-12-19T17:48:57.340Z,-0.92
2022-12-19T17:51:35.607Z,-0.93
2022-12-19T17:54:02.943Z,-0.73
2022-12-19T17:56:36.512Z,-0.81
2022-12-19T17:59:04.420Z,-0.71
2022-12-19T18:01:35.593Z,4.63
2022-12-19T18:04:06.022Z,0.49
2022-12-19T18:06:33.426Z,0.08
2022-12-19T18:09:06.759Z,-0.45
2022-12-19T18:11:41.913Z,-0.43
2022-12-19T18:14:13.472Z,-0.61
2022-12-19T18:16:45.332Z,-0.72
2022-12-19T18:19:20.624Z,-0.95
2022-12-19T18:21:53.421Z,-0.91
2022-12-19T18:24:20.644Z,-0.75
2022-12-19T18:26:49.731Z,-0.87
2022-12-19T18:29:28.130Z,-0.97
2022-12-19T18:31:58.532Z,-1.05
2022-12-19T18:34:30.900Z,-1.07
2022-12-19T18:36:58.380Z,-1.07
2022-12-19T18:39:30.347Z,-1.27
2022-12-19T18:42:17.344Z,-1.33
2022-12-19T18:44:44.438Z,-1.20
2022-12-19T18:47:38.077Z,-1.38
2022-12-19T18:50:20.407Z,-1.11
2022-12-19T18:52:49.149Z,-1.15
2022-12-19T18:55:25.589Z,-1.27
2022-12-19T18:57:54.037Z,-1.18
2022-12-19T19:00:24.027Z,-1.31
2022-12-19T19:03:04.212Z,-1.28
2022-12-19T19:05:34.413Z,-1.33
2022-12-19T19:08:15.127Z,-1.27
2022-12-19T19:10:46.956Z,-1.35
2022-12-19T19:13:15.445Z,-1.20
2022-12-19T19:15:47.774Z,-1.43
2022-12-19T19:18:21.348Z,-1.43
2022-12-19T19:21:01.195Z,-1.27
2022-12-19T19:23:39.576Z,-1.20
2022-12-19T19:26:10.874Z,-1.45
2022-12-19T19:28:41.494Z,-1.46
2022-12-19T19:31:21.898Z,-1.54
2022-12-19T19:34:04.001Z,-1.59
2022-12-19T19:36:35.559Z,-1.49
2022-12-19T19:39:04.698Z,-1.40
2022-12-19T19:41:32.153Z,-1.59
2022-12-19T19:44:02.804Z,-1.46
2022-12-19T19:46:33.849Z,-1.48
2022-12-19T19:49:00.974Z,-1.61
2022-12-19T19:51:31.365Z,1.42
2022-12-19T19:54:11.045Z,1.56
2022-12-19T19:56:41.593Z,-0.60
2022-12-19T19:59:14.375Z,-1.13
2022-12-19T20:01:49.365Z,-1.25
2022-12-19T20:04:23.665Z,-1.25
2022-12-19T20:07:01.453Z,-1.49
2022-12-19T20:09:32.218Z,-1.40
2022-12-19T20:12:06.874Z,-1.33
2022-12-19T20:14:41.558Z,-1.33
2022-12-19T20:17:08.868Z,-1.15
2022-12-19T20:19:36.110Z,-1.34
2022-12-19T20:22:03.690Z,-1.37
2022-12-19T20:24:34.430Z,-1.19
2022-12-19T20:27:05.997Z,-1.36
2022-12-19T20:29:39.026Z,-1.36
2022-12-19T20:32:09.535Z,-1.30
2022-12-19T20:34:46.612Z,-1.23
2022-12-19T20:37:17.333Z,-1.22
2022-12-19T20:39:48.212Z,-1.56
2022-12-19T20:42:24.704Z,-1.34
2022-12-19T20:44:57.355Z,-1.27
2022-12-19T20:47:28.086Z,-1.25
2022-12-19T20:50:06.759Z,-1.18
2022-12-19T20:52:37.512Z,-0.94
2022-12-19T20:55:09.111Z,-1.36
2022-12-19T20:57:39.686Z,-1.34
2022-12-19T21:00:12.288Z,-1.17
2022-12-19T21:03:24.930Z,-1.28
2022-12-19T21:05:38.898Z,-1.37
2022-12-19T21:08:14.541Z,-1.36
2022-12-19T21:10:48.403Z,-1.47
2022-12-19T21:13:22.381Z,-1.41
2022-12-19T21:16:00.283Z,-1.35
2022-12-19T21:18:31.057Z,-1.35
2022-12-19T21:21:06.592Z,-1.19
2022-12-19T21:23:39.731Z,-1.13
2022-12-19T21:26:14.326Z,-1.05
2022-12-19T21:28:42.598Z,-1.03
2022-12-19T21:31:23.038Z,-0.96
2022-12-19T21:33:54.272Z,-1.08
2022-12-19T21:36:25.671Z,-1.19
2022-12-19T21:38:58.354Z,-1.30
2022-12-19T21:41:32.353Z,-1.28
2022-12-19T21:44:03.308Z,-1.09
2022-12-19T21:46:32.528Z,-1.13
2022-12-19T21:49:06.109Z,-1.24
2022-12-19T21:51:42.641Z,-1.25
2022-12-19T21:54:21.664Z,-1.28
2022-12-19T21:56:52.611Z,-1.23
2022-12-19T21:59:29.641Z,-1.39
2022-12-19T22:02:01.372Z,-1.48
2022-12-19T22:04:37.770Z,-1.39
2022-12-19T22:07:09.100Z,-1.33
2022-12-19T22:09:44.284Z,-1.24
2022-12-19T22:12:18.458Z,-1.20
2022-12-19T22:14:52.023Z,-1.25
2022-12-19T22:17:26.672Z,-1.57
2022-12-19T22:20:03.165Z,-1.84
2022-12-19T22:22:43.634Z,-1.76
2022-12-19T22:25:21.550Z,-1.49
2022-12-19T22:27:59.753Z,-1.81
2022-12-19T22:30:33.680Z,-1.83
2022-12-19T22:33:07.615Z,-1.75
2022-12-19T22:35:38.603Z,-1.81
2022-12-19T22:38:09.816Z,-1.94
2022-12-19T22:40:40.431Z,-2.00
2022-12-19T22:43:14.291Z,-1.76
2022-12-19T22:45:52.532Z,-1.70
2022-12-19T22:48:30.075Z,-1.80
2022-12-19T22:51:00.516Z,-1.79
2022-12-19T22:53:30.936Z,-1.68
2022-12-19T22:56:14.732Z,-1.63
2022-12-19T22:58:45.443Z,-1.72
2022-12-19T23:01:23.057Z,-1.91
2022-12-19T23:03:57.066Z,-1.89
2022-12-19T23:06:32.549Z,-1.86
2022-12-19T23:09:12.278Z,-1.75
2022-12-19T23:11:47.399Z,-1.82
2022-12-19T23:14:19.723Z,-1.62
2022-12-19T23:16:56.666Z,-1.83
2022-12-19T23:19:30.006Z,-1.75
2022-12-19T23:22:01.898Z,-1.85
2022-12-19T23:24:33.096Z,-1.73
2022-12-19T23:27:08.139Z,-1.89
2022-12-19T23:29:48.002Z,-2.24
2022-12-19T23:32:24.560Z,-2.20
2022-12-19T23:34:58.604Z,-2.18
2022-12-19T23:37:29.676Z,-2.39
2022-12-19T23:40:05.857Z,-2.32
2022-12-19T23:42:35.945Z,-2.41
2022-12-19T23:45:07.786Z,-2.17
2022-12-19T23:47:43.816Z,-2.27
2022-12-19T23:50:13.983Z,-2.20
2022-12-19T23:52:44.918Z,-2.15
2022-12-19T23:55:15.475Z,-2.18
2022-12-19T23:57:45.772Z,-2.53
